Time,TemperatureF,DewpointF,PressureIn,WindDirection,WindDirectionDegrees,WindSpeedMPH,WindSpeedGustMPH,Humidity,HourlyPrecipIn,Conditions,Clouds,dailyrainin,SoftwareType,DateUTC
2013-07-26 00:00:00,57.8,56.3,30.07,WSW,242,0.0,0.0,95,0.00,,,0.00,WUHU216DAVISVP2,2013-07-26 04:00:00,
2013-07-26 00:01:00,57.8,56.3,30.07,WSW,243,0.0,0.0,95,0.00,,,0.00,WUHU216DAVISVP2,2013-07-26 04:01:00,
2013-07-26 00:06:00,57.9,56.4,30.07,WSW,242,0.0,0.0,95,0.00,,,0.00,WUHU216DAVISVP2,2013-07-26 04:06:00,
2013-07-26 00:11:00,57.6,56.1,30.07,WSW,242,0.0,0.0,95,0.00,,,0.00,WUHU216DAVISVP2,2013-07-26 04:11:00,
2013-07-26 00:16:00,57.2,56.0,30.07,WSW,242,0.0,0.0,96,0.00,,,0.00,WUHU216DAVISVP2,2013-07-26 04:16:00,
2013-07-26 00:22:00,56.9,55.7,30.07,WSW,242,0.0,0.0,96,0.00,,,0.00,WUHU216DAVISVP2,2013-07-26 04:22:00,
2013-07-26 00:27:00,56.8,55.6,30.07,WSW,242,0.0,0.0,96,0.00,,,0.00,WUHU216DAVISVP2,2013-07-26 04:27:00,
2013-07-26 00:32:00,57.0,55.5,30.07,WSW,243,0.0,0.0,95,0.00,,,0.00,WUHU216DAVISVP2,2013-07-26 04:32:00,
2013-07-26 00:37:00,56.8,55.3,30.07,WSW,242,0.0,0.0,95,0.00,,,0.00,WUHU216DAVISVP2,2013-07-26 04:37:00,
2013-07-26 00:42:00,56.8,55.3,30.07,WSW,242,0.0,0.0,95,0.00,,,0.00,WUHU216DAVISVP2,2013-07-26 04:42:00,
2013-07-26 00:47:00,56.8,55.3,30.07,WSW,242,0.0,0.0,95,0.00,,,0.00,WUHU216DAVISVP2,2013-07-26 04:47:00,
2013-07-26 00:52:00,56.8,55.3,30.06,WSW,242,0.0,0.0,95,0.00,,,0.00,WUHU216DAVISVP2,2013-07-26 04:52:00,
2013-07-26 00:57:00,57.1,55.6,30.06,WSW,242,0.0,0.0,95,0.00,,,0.00,WUHU216DAVISVP2,2013-07-26 04:57:00,
2013-07-26 01:02:00,56.9,55.4,30.06,WSW,242,0.0,0.0,95,0.00,,,0.00,WUHU216DAVISVP2,2013-07-26 05:02:00,
2013-07-26 01:07:00,56.8,55.3,30.06,WSW,242,0.0,0.0,95,0.00,,,0.00,WUHU216DAVISVP2,2013-07-26 05:07:00,
2013-07-26 01:12:00,57.0,55.5,30.07,WSW,242,0.0,0.0,95,0.00,,,0.00,WUHU216DAVISVP2,2013-07-26 05:12:00,
2013-07-26 01:17:00,57.2,55.7,30.07,WSW,242,0.0,0.0,95,0.00,,,0.00,WUHU216DAVISVP2,2013-07-26 05:17:00,
2013-07-26 01:22:00,57.5,56.0,30.06,WSW,242,0.0,0.0,95,0.00,,,0.00,WUHU216DAVISVP2,2013-07-26 05:22:00,
2013-07-26 01:27:00,57.9,56.4,30.06,WSW,242,0.0,0.0,95,0.00,,,0.00,WUHU216DAVISVP2,2013-07-26 05:27:00,
2013-07-26 01:32:00,58.1,56.6,30.06,WSW,242,0.0,0.0,95,0.00,,,0.00,WUHU216DAVISVP2,2013-07-26 05:32:00,
2013-07-26 01:37:00,58.2,56.7,30.06,WSW,243,0.0,0.0,95,0.00,,,0.00,WUHU216DAVISVP2,2013-07-26 05:37:00,
2013-07-26 01:42:00,58.4,56.9,30.06,WSW,243,0.0,0.0,95,0.00,,,0.00,WUHU216DAVISVP2,2013-07-26 05:42:00,
2013-07-26 01:47:00,58.5,57.0,30.07,WSW,242,0.0,0.0,95,0.00,,,0.00,WUHU216DAVISVP2,2013-07-26 05:47:00,
2013-07-26 01:52:00,58.6,57.1,30.06,WSW,242,0.0,0.0,95,0.00,,,0.00,WUHU216DAVISVP2,2013-07-26 05:52:00,
2013-07-26 01:57:00,58.7,57.2,30.06,WSW,242,0.0,0.0,95,0.00,,,0.00,WUHU216DAVISVP2,2013-07-26 05:57:00,
2013-07-26 02:02:00,58.6,57.1,30.06,WSW,242,0.0,1.0,95,0.00,,,0.00,WUHU216DAVISVP2,2013-07-26 06:02:00,
2013-07-26 02:07:00,58.6,57.1,30.06,WSW,242,0.0,1.0,95,0.00,,,0.00,WUHU216DAVISVP2,2013-07-26 06:07:00,
2013-07-26 02:12:00,58.7,57.2,30.06,WSW,242,0.0,1.0,95,0.00,,,0.00,WUHU216DAVISVP2,2013-07-26 06:12:00,
2013-07-26 02:17:00,58.7,57.2,30.06,WSW,242,0.0,1.0,95,0.00,,,0.00,WUHU216DAVISVP2,2013-07-26 06:17:00,
2013-07-26 02:22:00,58.5,57.3,30.06,SE,124,1.0,1.0,96,0.00,,,0.00,WUHU216DAVISVP2,2013-07-26 06:22:00,
2013-07-26 02:27:00,58.5,57.3,30.06,ESE,123,0.0,1.0,96,0.00,,,0.00,WUHU216DAVISVP2,2013-07-26 06:27:00,
2013-07-26 02:32:00,58.4,57.2,30.07,SE,124,0.0,1.0,96,0.00,,,0.00,WUHU216DAVISVP2,2013-07-26 06:32:00,
2013-07-26 02:37:00,58.2,57.0,30.07,ESE,123,0.0,1.0,96,0.00,,,0.00,WUHU216DAVISVP2,2013-07-26 06:37:00,
2013-07-26 02:42:00,58.1,56.9,30.07,SE,124,0.0,1.0,96,0.00,,,0.00,WUHU216DAVISVP2,2013-07-26 06:42:00,
2013-07-26 02:47:00,58.1,56.9,30.07,ESE,123,0.0,1.0,96,0.00,,,0.00,WUHU216DAVISVP2,2013-07-26 06:47:00,
2013-07-26 02:52:00,58.0,56.8,30.07,ESE,123,0.0,1.0,96,0.00,,,0.00,WUHU216DAVISVP2,2013-07-26 06:52:00,
2013-07-26 02:57:00,57.9,56.7,30.06,ESE,123,0.0,0.0,96,0.00,,,0.00,WUHU216DAVISVP2,2013-07-26 06:57:00,
2013-07-26 03:02:00,57.7,56.5,30.06,ESE,110,1.0,1.0,96,0.00,,,0.00,WUHU216DAVISVP2,2013-07-26 07:02:00,
2013-07-26 03:07:00,57.6,56.4,30.06,South,169,0.0,1.0,96,0.00,,,0.00,WUHU216DAVISVP2,2013-07-26 07:07:00,
2013-07-26 03:12:00,57.5,56.3,30.07,South,169,0.0,1.0,96,0.00,,,0.00,WUHU216DAVISVP2,2013-07-26 07:12:00,
2013-07-26 03:17:00,57.3,56.1,30.07,South,169,0.0,1.0,96,0.00,,,0.00,WUHU216DAVISVP2,2013-07-26 07:17:00,
2013-07-26 03:22:00,57.2,56.0,30.07,South,169,0.0,1.0,96,0.00,,,0.00,WUHU216DAVISVP2,2013-07-26 07:22:00,
2013-07-26 03:27:00,57.2,56.0,30.06,South,169,0.0,1.0,96,0.00,,,0.00,WUHU216DAVISVP2,2013-07-26 07:27:00,
2013-07-26 03:32:00,57.2,56.0,30.06,South,169,0.0,1.0,96,0.00,,,0.00,WUHU216DAVISVP2,2013-07-26 07:32:00,
2013-07-26 03:37:00,57.3,56.2,30.06,South,169,0.0,1.0,96,0.00,,,0.00,WUHU216DAVISVP2,2013-07-26 07:37:00,
2013-07-26 03:42:00,57.3,56.2,30.06,South,169,0.0,1.0,96,0.00,,,0.00,WUHU216DAVISVP2,2013-07-26 07:42:00,
2013-07-26 03:47:00,57.4,56.3,30.06,South,169,0.0,1.0,96,0.00,,,0.00,WUHU216DAVISVP2,2013-07-26 07:47:00,
2013-07-26 03:52:00,57.4,56.3,30.06,South,169,0.0,1.0,96,0.00,,,0.00,WUHU216DAVISVP2,2013-07-26 07:52:00,
2013-07-26 03:57:00,57.4,56.3,30.06,South,169,0.0,1.0,96,0.00,,,0.00,WUHU216DAVISVP2,2013-07-26 07:57:00,
2013-07-26 04:02:00,57.2,56.1,30.06,East,98,1.0,1.0,96,0.00,,,0.00,WUHU216DAVISVP2,2013-07-26 08:02:00,
2013-07-26 04:07:00,57.0,55.9,30.06,East,99,1.0,1.0,96,0.00,,,0.00,WUHU216DAVISVP2,2013-07-26 08:07:00,
2013-07-26 04:12:00,57.0,55.9,30.06,East,99,1.0,1.0,96,0.00,,,0.00,WUHU216DAVISVP2,2013-07-26 08:12:00,
2013-07-26 04:17:00,57.0,55.9,30.06,East,99,1.0,1.0,96,0.00,,,0.00,WUHU216DAVISVP2,2013-07-26 08:17:00,
2013-07-26 04:22:00,56.8,55.7,30.06,East,99,0.0,1.0,96,0.00,,,0.00,WUHU216DAVISVP2,2013-07-26 08:22:00,
2013-07-26 04:27:00,56.8,55.7,30.06,East,99,0.0,1.0,96,0.00,,,0.00,WUHU216DAVISVP2,2013-07-26 08:27:00,
2013-07-26 04:32:00,56.8,55.7,30.06,East,98,0.0,1.0,96,0.00,,,0.00,WUHU216DAVISVP2,2013-07-26 08:32:00,
2013-07-26 04:37:00,56.8,55.7,30.06,East,98,0.0,1.0,96,0.00,,,0.00,WUHU216DAVISVP2,2013-07-26 08:37:00,
2013-07-26 04:42:00,56.8,55.6,30.06,ESE,103,1.0,1.0,96,0.00,,,0.00,WUHU216DAVISVP2,2013-07-26 08:42:00,
2013-07-26 04:47:00,56.7,55.5,30.06,SE,127,1.0,1.0,96,0.00,,,0.00,WUHU216DAVISVP2,2013-07-26 08:47:00,
2013-07-26 04:52:00,56.6,55.4,30.06,ESE,120,1.0,1.0,96,0.00,,,0.00,WUHU216DAVISVP2,2013-07-26 08:52:00,
2013-07-26 04:57:00,56.7,55.5,30.06,ESE,120,0.0,1.0,96,0.00,,,0.00,WUHU216DAVISVP2,2013-07-26 08:57:00,
2013-07-26 05:02:00,56.7,55.5,30.07,ESE,120,0.0,1.0,96,0.00,,,0.00,WUHU216DAVISVP2,2013-07-26 09:02:00,
2013-07-26 05:07:00,56.6,55.4,30.07,ESE,107,0.0,1.0,96,0.00,,,0.00,WUHU216DAVISVP2,2013-07-26 09:07:00,
2013-07-26 05:12:00,56.6,55.4,30.07,ESE,108,0.0,1.0,96,0.00,,,0.00,WUHU216DAVISVP2,2013-07-26 09:12:00,
2013-07-26 05:17:00,56.5,55.3,30.06,ESE,107,0.0,1.0,96,0.00,,,0.00,WUHU216DAVISVP2,2013-07-26 09:17:00,
2013-07-26 05:22:00,56.4,55.2,30.06,ESE,107,1.0,1.0,96,0.00,,,0.00,WUHU216DAVISVP2,2013-07-26 09:22:00,
2013-07-26 05:27:00,56.3,55.1,30.06,ESE,107,0.0,1.0,96,0.00,,,0.00,WUHU216DAVISVP2,2013-07-26 09:27:00,
2013-07-26 05:32:00,56.1,54.9,30.06,ESE,107,1.0,1.0,96,0.00,,,0.00,WUHU216DAVISVP2,2013-07-26 09:32:00,
2013-07-26 05:37:00,55.9,54.7,30.06,ESE,107,0.0,1.0,96,0.00,,,0.00,WUHU216DAVISVP2,2013-07-26 09:37:00,
2013-07-26 05:42:00,55.8,54.6,30.06,ESE,108,0.0,1.0,96,0.00,,,0.00,WUHU216DAVISVP2,2013-07-26 09:42:00,
2013-07-26 05:47:00,55.8,54.6,30.07,ESE,107,0.0,1.0,96,0.00,,,0.00,WUHU216DAVISVP2,2013-07-26 09:47:00,
2013-07-26 05:52:00,55.8,54.6,30.07,ESE,107,0.0,1.0,96,0.00,,,0.00,WUHU216DAVISVP2,2013-07-26 09:52:00,
2013-07-26 05:57:00,55.8,54.6,30.07,ESE,107,0.0,1.0,96,0.00,,,0.00,WUHU216DAVISVP2,2013-07-26 09:57:00,
2013-07-26 06:02:00,55.8,54.6,30.07,ESE,107,0.0,1.0,96,0.00,,,0.00,WUHU216DAVISVP2,2013-07-26 10:02:00,
2013-07-26 06:07:00,55.9,54.7,30.07,ESE,107,1.0,1.0,96,0.00,,,0.00,WUHU216DAVISVP2,2013-07-26 10:07:00,
2013-07-26 06:12:00,55.9,54.7,30.07,ESE,108,0.0,1.0,96,0.00,,,0.00,WUHU216DAVISVP2,2013-07-26 10:12:00,
2013-07-26 06:17:00,55.9,54.7,30.08,ESE,108,0.0,1.0,96,0.00,,,0.00,WUHU216DAVISVP2,2013-07-26 10:17:00,
2013-07-26 06:22:00,55.8,54.6,30.08,ESE,107,1.0,1.0,96,0.00,,,0.00,WUHU216DAVISVP2,2013-07-26 10:22:00,
2013-07-26 06:27:00,55.7,54.5,30.08,ESE,107,1.0,1.0,96,0.00,,,0.00,WUHU216DAVISVP2,2013-07-26 10:27:00,
2013-07-26 06:32:00,55.7,54.5,30.08,ESE,107,0.0,1.0,96,0.00,,,0.00,WUHU216DAVISVP2,2013-07-26 10:32:00,
2013-07-26 06:37:00,55.7,54.5,30.08,ESE,107,0.0,1.0,96,0.00,,,0.00,WUHU216DAVISVP2,2013-07-26 10:37:00,
2013-07-26 06:42:00,55.6,54.4,30.08,ESE,107,0.0,1.0,96,0.00,,,0.00,WUHU216DAVISVP2,2013-07-26 10:42:00,
2013-07-26 06:47:00,55.5,54.3,30.08,ESE,107,1.0,1.0,96,0.00,,,0.00,WUHU216DAVISVP2,2013-07-26 10:47:00,
2013-07-26 06:52:00,55.5,54.3,30.08,East,101,1.0,2.0,96,0.00,,,0.00,WUHU216DAVISVP2,2013-07-26 10:52:00,
2013-07-26 06:57:00,55.6,54.4,30.08,ESE,102,0.0,2.0,96,0.00,,,0.00,WUHU216DAVISVP2,2013-07-26 10:57:00,
2013-07-26 07:02:00,55.6,54.5,30.08,East,101,1.0,2.0,96,0.00,,,0.00,WUHU216DAVISVP2,2013-07-26 11:02:00,
2013-07-26 07:07:00,55.5,54.3,30.08,ESE,102,1.0,2.0,96,0.00,,,0.00,WUHU216DAVISVP2,2013-07-26 11:07:00,
2013-07-26 07:12:00,55.4,54.3,30.08,ESE,102,1.0,1.0,96,0.00,,,0.00,WUHU216DAVISVP2,2013-07-26 11:12:00,
2013-07-26 07:17:00,55.5,54.4,30.08,ESE,104,1.2,2.0,96,0.00,,,0.00,WUHU216DAVISVP2,2013-07-26 11:17:00,
2013-07-26 07:22:00,55.5,54.4,30.08,ESE,113,1.0,2.0,96,0.00,,,0.00,WUHU216DAVISVP2,2013-07-26 11:22:00,
2013-07-26 07:27:00,55.5,54.4,30.08,ESE,104,1.0,2.0,96,0.00,,,0.00,WUHU216DAVISVP2,2013-07-26 11:27:00,
2013-07-26 07:32:00,55.8,54.7,30.08,ESE,105,0.0,2.0,96,0.00,,,0.00,WUHU216DAVISVP2,2013-07-26 11:32:00,
2013-07-26 07:37:00,56.1,55.0,30.09,ESE,105,1.0,1.0,96,0.00,,,0.00,WUHU216DAVISVP2,2013-07-26 11:37:00,
2013-07-26 07:42:00,56.5,55.4,30.09,ESE,105,0.0,1.0,96,0.00,,,0.00,WUHU216DAVISVP2,2013-07-26 11:42:00,
2013-07-26 07:47:00,56.8,55.7,30.09,ESE,105,0.0,1.0,96,0.00,,,0.00,WUHU216DAVISVP2,2013-07-26 11:47:00,
2013-07-26 07:52:00,57.0,55.9,30.09,ESE,105,0.0,1.0,96,0.00,,,0.00,WUHU216DAVISVP2,2013-07-26 11:52:00,
2013-07-26 07:57:00,57.1,56.0,30.09,ESE,104,0.0,1.0,96,0.00,,,0.00,WUHU216DAVISVP2,2013-07-26 11:57:00,
2013-07-26 08:02:00,57.2,56.1,30.09,WSW,249,1.0,1.0,96,0.00,,,0.00,WUHU216DAVISVP2,2013-07-26 12:02:00,
2013-07-26 08:07:00,57.2,56.1,30.09,WSW,249,1.0,1.0,96,0.00,,,0.00,WUHU216DAVISVP2,2013-07-26 12:07:00,
2013-07-26 08:12:00,57.4,56.2,30.09,ENE,57,1.0,1.0,96,0.00,,,0.00,WUHU216DAVISVP2,2013-07-26 12:12:00,
2013-07-26 08:17:00,57.4,56.2,30.09,ENE,62,0.0,1.0,96,0.00,,,0.00,WUHU216DAVISVP2,2013-07-26 12:17:00,
2013-07-26 08:22:00,57.6,56.4,30.09,ENE,63,1.0,1.0,96,0.00,,,0.00,WUHU216DAVISVP2,2013-07-26 12:22:00,
2013-07-26 08:27:00,57.9,56.7,30.09,ENE,63,0.0,1.0,96,0.00,,,0.00,WUHU216DAVISVP2,2013-07-26 12:27:00,
2013-07-26 08:32:00,58.0,56.8,30.09,ENE,63,1.0,1.0,96,0.00,,,0.00,WUHU216DAVISVP2,2013-07-26 12:32:00,
2013-07-26 08:37:00,58.3,57.1,30.09,ENE,63,1.0,1.0,96,0.00,,,0.00,WUHU216DAVISVP2,2013-07-26 12:37:00,
2013-07-26 08:42:00,58.6,57.4,30.09,ENE,63,0.0,1.0,96,0.00,,,0.00,WUHU216DAVISVP2,2013-07-26 12:42:00,
2013-07-26 08:47:00,58.9,57.7,30.09,West,274,1.0,1.0,96,0.00,,,0.00,WUHU216DAVISVP2,2013-07-26 12:47:00,
2013-07-26 08:52:00,59.3,58.1,30.09,West,277,1.0,1.0,96,0.00,,,0.00,WUHU216DAVISVP2,2013-07-26 12:52:00,
2013-07-26 08:57:00,60.1,58.9,30.09,West,276,1.0,1.0,96,0.00,,,0.00,WUHU216DAVISVP2,2013-07-26 12:57:00,
2013-07-26 09:02:00,60.6,59.4,30.09,West,277,0.0,1.0,96,0.00,,,0.00,WUHU216DAVISVP2,2013-07-26 13:02:00,
2013-07-26 09:07:00,62.1,60.9,30.08,NE,36,1.0,1.0,96,0.00,,,0.00,WUHU216DAVISVP2,2013-07-26 13:07:00,
2013-07-26 09:12:00,63.1,61.3,30.09,NE,36,0.0,1.0,94,0.00,,,0.00,WUHU216DAVISVP2,2013-07-26 13:12:00,
2013-07-26 09:17:00,64.5,62.1,30.08,NE,35,1.0,1.0,92,0.00,,,0.00,WUHU216DAVISVP2,2013-07-26 13:17:00,
2013-07-26 09:22:00,65.4,62.1,30.08,East,79,0.0,2.0,89,0.00,,,0.00,WUHU216DAVISVP2,2013-07-26 13:22:00,
2013-07-26 09:27:00,66.7,62.1,30.08,East,79,0.0,2.0,85,0.00,,,0.00,WUHU216DAVISVP2,2013-07-26 13:27:00,
2013-07-26 09:32:00,67.8,63.1,30.08,ENE,70,1.1,2.0,85,0.00,,,0.00,WUHU216DAVISVP2,2013-07-26 13:32:00,
2013-07-26 09:37:00,68.4,62.7,30.07,ESE,103,1.0,2.0,82,0.00,,,0.00,WUHU216DAVISVP2,2013-07-26 13:37:00,
2013-07-26 09:42:00,69.1,63.4,30.08,East,88,1.0,2.0,82,0.00,,,0.00,WUHU216DAVISVP2,2013-07-26 13:42:00,
2013-07-26 09:47:00,70.3,64.6,30.07,East,88,1.0,2.0,82,0.00,,,0.00,WUHU216DAVISVP2,2013-07-26 13:47:00,
2013-07-26 09:52:00,70.4,63.3,30.07,WNW,282,1.0,2.0,78,0.00,,,0.00,WUHU216DAVISVP2,2013-07-26 13:52:00,
2013-07-26 09:57:00,69.8,63.4,30.07,WNW,294,1.2,2.0,80,0.00,,,0.00,WUHU216DAVISVP2,2013-07-26 13:57:00,
2013-07-26 10:03:00,70.2,63.8,30.08,WSW,256,1.2,2.0,80,0.00,,,0.00,WUHU216DAVISVP2,2013-07-26 14:03:00,
2013-07-26 10:08:00,70.5,63.8,30.08,WSW,239,1.0,3.0,79,0.00,,,0.00,WUHU216DAVISVP2,2013-07-26 14:08:00,
2013-07-26 10:13:00,71.4,63.9,30.07,WSW,242,1.0,3.0,77,0.00,,,0.00,WUHU216DAVISVP2,2013-07-26 14:13:00,
2013-07-26 10:18:00,72.0,64.5,30.07,WNW,295,2.0,3.0,77,0.00,,,0.00,WUHU216DAVISVP2,2013-07-26 14:18:00,
2013-07-26 10:23:00,72.0,65.2,30.07,WNW,283,1.4,3.0,79,0.00,,,0.00,WUHU216DAVISVP2,2013-07-26 14:23:00,
2013-07-26 10:28:00,72.4,64.5,30.07,NE,43,1.4,3.0,76,0.00,,,0.00,WUHU216DAVISVP2,2013-07-26 14:28:00,
2013-07-26 10:33:00,73.5,65.6,30.07,NW,315,1.0,3.0,76,0.00,,,0.00,WUHU216DAVISVP2,2013-07-26 14:33:00,
2013-07-26 10:38:00,74.4,64.2,30.07,NNW,338,2.0,3.0,70,0.00,,,0.00,WUHU216DAVISVP2,2013-07-26 14:38:00,
2013-07-26 10:43:00,74.8,63.7,30.07,West,280,1.3,3.0,68,0.00,,,0.00,WUHU216DAVISVP2,2013-07-26 14:43:00,
2013-07-26 10:48:00,75.0,64.3,30.07,WNW,286,1.6,3.0,69,0.00,,,0.00,WUHU216DAVISVP2,2013-07-26 14:48:00,
2013-07-26 10:53:00,75.4,63.9,30.08,ESE,116,1.4,3.0,67,0.00,,,0.00,WUHU216DAVISVP2,2013-07-26 14:53:00,
2013-07-26 10:58:00,75.6,61.9,30.08,NNW,333,2.0,4.0,62,0.00,,,0.00,WUHU216DAVISVP2,2013-07-26 14:58:00,
2013-07-26 11:03:00,75.7,61.0,30.08,ENE,78,1.0,4.0,60,0.00,,,0.00,WUHU216DAVISVP2,2013-07-26 15:03:00,
2013-07-26 11:08:00,76.1,60.9,30.08,NNW,334,1.4,4.0,59,0.00,,,0.00,WUHU216DAVISVP2,2013-07-26 15:08:00,
2013-07-26 11:13:00,76.3,60.6,30.08,ENE,65,1.7,4.0,58,0.00,,,0.00,WUHU216DAVISVP2,2013-07-26 15:13:00,
2013-07-26 11:18:00,76.5,61.8,30.08,NW,310,2.0,3.0,60,0.00,,,0.00,WUHU216DAVISVP2,2013-07-26 15:18:00,
2013-07-26 11:23:00,76.6,61.4,30.08,WNW,298,1.4,3.0,59,0.00,,,0.00,WUHU216DAVISVP2,2013-07-26 15:23:00,
2013-07-26 11:28:00,76.8,61.6,30.08,ESE,105,2.0,3.0,59,0.00,,,0.00,WUHU216DAVISVP2,2013-07-26 15:28:00,
2013-07-26 11:33:00,77.2,61.5,30.07,East,91,2.2,4.0,58,0.00,,,0.00,WUHU216DAVISVP2,2013-07-26 15:33:00,
2013-07-26 11:38:00,77.1,61.9,30.08,WSW,258,1.9,5.0,59,0.00,,,0.00,WUHU216DAVISVP2,2013-07-26 15:38:00,
2013-07-26 11:43:00,77.5,62.3,30.07,SW,223,1.1,6.0,59,0.00,,,0.00,WUHU216DAVISVP2,2013-07-26 15:43:00,
2013-07-26 11:48:00,77.7,63.4,30.07,West,269,2.0,6.0,61,0.00,,,0.00,WUHU216DAVISVP2,2013-07-26 15:48:00,
2013-07-26 11:53:00,77.9,63.1,30.07,ENE,62,2.0,5.0,60,0.00,,,0.00,WUHU216DAVISVP2,2013-07-26 15:53:00,
2013-07-26 11:58:00,78.7,62.4,30.07,ENE,72,2.0,5.0,57,0.00,,,0.00,WUHU216DAVISVP2,2013-07-26 15:58:00,
2013-07-26 12:03:00,78.9,63.6,30.06,WNW,283,1.0,3.0,59,0.00,,,0.00,WUHU216DAVISVP2,2013-07-26 16:03:00,
2013-07-26 12:08:00,79.5,62.6,30.06,SSW,205,1.1,3.0,56,0.00,,,0.00,WUHU216DAVISVP2,2013-07-26 16:08:00,
2013-07-26 12:13:00,80.1,62.7,30.06,WSW,241,1.2,4.0,55,0.00,,,0.00,WUHU216DAVISVP2,2013-07-26 16:13:00,
2013-07-26 12:18:00,79.9,63.0,30.06,WSW,257,2.3,5.0,56,0.00,,,0.00,WUHU216DAVISVP2,2013-07-26 16:18:00,
2013-07-26 12:23:00,79.5,64.4,30.06,West,262,4.0,5.0,60,0.00,,,0.00,WUHU216DAVISVP2,2013-07-26 16:23:00,
2013-07-26 12:28:00,78.6,63.1,30.06,WNW,299,2.5,8.0,59,0.00,,,0.00,WUHU216DAVISVP2,2013-07-26 16:28:00,
2013-07-26 12:33:00,78.5,63.0,30.06,East,85,1.9,8.0,59,0.00,,,0.00,WUHU216DAVISVP2,2013-07-26 16:33:00,
2013-07-26 12:38:00,77.8,61.3,30.06,East,89,4.0,8.0,57,0.00,,,0.00,WUHU216DAVISVP2,2013-07-26 16:38:00,
2013-07-26 12:43:00,76.9,62.0,30.05,WNW,297,1.5,8.0,60,0.00,,,0.00,WUHU216DAVISVP2,2013-07-26 16:43:00,
2013-07-26 12:48:00,77.4,63.8,30.05,NNE,33,1.7,5.0,63,0.00,,,0.00,WUHU216DAVISVP2,2013-07-26 16:48:00,
2013-07-26 12:53:00,78.2,63.2,30.05,ESE,122,2.5,5.0,60,0.00,,,0.00,WUHU216DAVISVP2,2013-07-26 16:53:00,
2013-07-26 12:58:00,78.5,63.9,30.05,WNW,299,1.6,4.0,61,0.00,,,0.00,WUHU216DAVISVP2,2013-07-26 16:58:00,
2013-07-26 13:03:00,78.5,62.0,30.05,NNE,12,2.0,4.0,57,0.00,,,0.00,WUHU216DAVISVP2,2013-07-26 17:03:00,
2013-07-26 13:08:00,78.7,62.9,30.05,NE,41,1.4,4.0,58,0.00,,,0.00,WUHU216DAVISVP2,2013-07-26 17:08:00,
2013-07-26 13:13:00,79.2,61.6,30.05,SE,134,1.3,4.0,55,0.00,,,0.00,WUHU216DAVISVP2,2013-07-26 17:13:00,
2013-07-26 13:18:00,79.7,64.1,30.05,East,93,2.2,5.0,59,0.00,,,0.00,WUHU216DAVISVP2,2013-07-26 17:18:00,
2013-07-26 13:23:00,80.0,64.6,30.05,NW,304,3.0,5.0,59,0.00,,,0.00,WUHU216DAVISVP2,2013-07-26 17:23:00,
2013-07-26 13:28:00,80.0,65.3,30.05,WNW,287,3.0,4.0,61,0.00,,,0.00,WUHU216DAVISVP2,2013-07-26 17:28:00,
2013-07-26 13:33:00,80.0,62.4,30.05,ESE,119,1.7,4.0,55,0.00,,,0.00,WUHU216DAVISVP2,2013-07-26 17:33:00,
2013-07-26 13:38:00,80.0,64.9,30.04,WNW,292,1.6,6.0,60,0.00,,,0.00,WUHU216DAVISVP2,2013-07-26 17:38:00,
2013-07-26 13:43:00,80.2,64.1,30.04,NW,320,2.0,6.0,58,0.00,,,0.00,WUHU216DAVISVP2,2013-07-26 17:43:00,
2013-07-26 13:48:00,80.4,64.8,30.04,WNW,299,2.8,6.0,59,0.00,,,0.00,WUHU216DAVISVP2,2013-07-26 17:48:00,
2013-07-26 13:53:00,80.3,62.7,30.04,NW,305,1.7,6.0,55,0.00,,,0.00,WUHU216DAVISVP2,2013-07-26 17:53:00,
2013-07-26 13:58:00,80.2,65.5,30.04,SW,235,3.0,6.0,61,0.00,,,0.00,WUHU216DAVISVP2,2013-07-26 17:58:00,
2013-07-26 14:03:00,80.4,64.8,30.04,NNE,32,3.0,6.0,59,0.00,,,0.00,WUHU216DAVISVP2,2013-07-26 18:03:00,
2013-07-26 14:08:00,80.3,65.1,30.04,NE,47,2.1,6.0,60,0.00,,,0.00,WUHU216DAVISVP2,2013-07-26 18:08:00,
2013-07-26 14:13:00,80.3,64.7,30.04,NNW,335,2.0,6.0,59,0.00,,,0.00,WUHU216DAVISVP2,2013-07-26 18:13:00,
2013-07-26 14:18:00,80.8,64.1,30.03,WNW,302,3.0,5.0,57,0.00,,,0.00,WUHU216DAVISVP2,2013-07-26 18:18:00,
2013-07-26 14:23:00,81.1,63.9,30.03,West,276,3.1,5.0,56,0.00,,,0.00,WUHU216DAVISVP2,2013-07-26 18:23:00,
2013-07-26 14:28:00,80.7,63.5,30.03,WSW,251,1.3,5.0,56,0.00,,,0.00,WUHU216DAVISVP2,2013-07-26 18:28:00,
2013-07-26 14:33:00,81.2,64.0,30.03,WNW,295,2.7,6.0,56,0.00,,,0.00,WUHU216DAVISVP2,2013-07-26 18:33:00,
2013-07-26 14:38:00,81.6,62.8,30.03,WSW,247,2.1,6.0,53,0.00,,,0.00,WUHU216DAVISVP2,2013-07-26 18:38:00,
2013-07-26 14:43:00,81.5,62.2,30.03,WSW,257,1.3,6.0,52,0.00,,,0.00,WUHU216DAVISVP2,2013-07-26 18:43:00,
2013-07-26 14:48:00,81.9,62.5,30.02,WNW,292,2.0,6.0,52,0.00,,,0.00,WUHU216DAVISVP2,2013-07-26 18:48:00,
2013-07-26 14:53:00,81.7,63.4,30.02,East,88,1.3,4.0,54,0.00,,,0.00,WUHU216DAVISVP2,2013-07-26 18:53:00,
2013-07-26 14:58:00,82.3,64.0,30.02,NE,43,1.0,4.0,54,0.00,,,0.00,WUHU216DAVISVP2,2013-07-26 18:58:00,
2013-07-26 15:03:00,82.8,63.4,30.02,East,84,2.0,4.0,52,0.00,,,0.00,WUHU216DAVISVP2,2013-07-26 19:03:00,
2013-07-26 15:08:00,82.9,61.9,30.01,ESE,117,1.1,5.0,49,0.00,,,0.00,WUHU216DAVISVP2,2013-07-26 19:08:00,
2013-07-26 15:13:00,83.1,64.7,30.01,West,272,1.0,5.0,54,0.00,,,0.00,WUHU216DAVISVP2,2013-07-26 19:13:00,
2013-07-26 15:18:00,82.3,62.9,30.01,West,276,2.0,5.0,52,0.00,,,0.00,WUHU216DAVISVP2,2013-07-26 19:18:00,
2013-07-26 15:23:00,82.4,64.1,30.01,North,349,1.9,5.0,54,0.00,,,0.00,WUHU216DAVISVP2,2013-07-26 19:23:00,
2013-07-26 15:28:00,82.5,62.7,30.00,WSW,256,1.0,5.0,51,0.00,,,0.00,WUHU216DAVISVP2,2013-07-26 19:28:00,
2013-07-26 15:33:00,82.7,61.7,30.00,East,97,2.2,5.0,49,0.00,,,0.00,WUHU216DAVISVP2,2013-07-26 19:33:00,
2013-07-26 15:38:00,82.9,63.5,30.00,WNW,299,3.0,5.0,52,0.00,,,0.00,WUHU216DAVISVP2,2013-07-26 19:38:00,
2013-07-26 15:43:00,82.8,63.0,30.00,West,281,2.6,5.0,51,0.00,,,0.00,WUHU216DAVISVP2,2013-07-26 19:43:00,
2013-07-26 15:48:00,82.8,64.1,30.00,ENE,78,2.0,5.0,53,0.00,,,0.00,WUHU216DAVISVP2,2013-07-26 19:48:00,
2013-07-26 15:53:00,83.0,61.9,30.00,WSW,240,2.0,5.0,49,0.00,,,0.00,WUHU216DAVISVP2,2013-07-26 19:53:00,
2013-07-26 15:58:00,83.2,62.2,30.00,ENE,72,2.0,5.0,49,0.00,,,0.00,WUHU216DAVISVP2,2013-07-26 19:58:00,
2013-07-26 16:03:00,83.1,63.8,30.00,ENE,65,1.1,5.0,52,0.00,,,0.00,WUHU216DAVISVP2,2013-07-26 20:03:00,
2013-07-26 16:08:00,83.5,62.4,30.00,SW,234,4.0,6.0,49,0.00,,,0.00,WUHU216DAVISVP2,2013-07-26 20:08:00,
2013-07-26 16:13:00,82.9,61.9,30.00,NE,34,1.3,7.0,49,0.00,,,0.00,WUHU216DAVISVP2,2013-07-26 20:13:00,
2013-07-26 16:18:00,82.8,60.0,30.00,WSW,247,1.7,7.0,46,0.00,,,0.00,WUHU216DAVISVP2,2013-07-26 20:18:00,
2013-07-26 16:23:00,83.2,62.2,29.99,West,280,1.1,7.0,49,0.00,,,0.00,WUHU216DAVISVP2,2013-07-26 20:23:00,
2013-07-26 16:28:00,83.4,62.9,29.99,NNE,13,2.0,5.0,50,0.00,,,0.00,WUHU216DAVISVP2,2013-07-26 20:28:00,
2013-07-26 16:33:00,83.2,61.6,29.99,NNE,16,1.5,5.0,48,0.00,,,0.00,WUHU216DAVISVP2,2013-07-26 20:33:00,
2013-07-26 16:38:00,82.7,61.1,29.99,WSW,240,2.0,6.0,48,0.00,,,0.00,WUHU216DAVISVP2,2013-07-26 20:38:00,
2013-07-26 16:43:00,82.8,63.0,29.99,NE,36,2.0,6.0,51,0.00,,,0.00,WUHU216DAVISVP2,2013-07-26 20:43:00,
2013-07-26 16:48:00,83.3,61.0,29.99,NNE,31,1.1,6.0,47,0.00,,,0.00,WUHU216DAVISVP2,2013-07-26 20:48:00,
2013-07-26 16:54:00,83.1,61.5,29.98,East,91,1.2,5.0,48,0.00,,,0.00,WUHU216DAVISVP2,2013-07-26 20:54:00,
2013-07-26 16:59:00,83.4,64.1,29.98,NW,310,1.5,3.0,52,0.00,,,0.00,WUHU216DAVISVP2,2013-07-26 20:59:00,
2013-07-26 17:04:00,83.4,61.1,29.98,NW,309,2.0,4.0,47,0.00,,,0.00,WUHU216DAVISVP2,2013-07-26 21:04:00,
2013-07-26 17:09:00,83.6,62.5,29.98,West,263,1.2,4.0,49,0.00,,,0.00,WUHU216DAVISVP2,2013-07-26 21:09:00,
2013-07-26 17:14:00,83.8,60.9,29.98,West,271,1.0,4.0,46,0.00,,,0.00,WUHU216DAVISVP2,2013-07-26 21:14:00,
2013-07-26 17:19:00,84.0,61.1,29.98,East,82,1.2,4.0,46,0.00,,,0.00,WUHU216DAVISVP2,2013-07-26 21:19:00,
2013-07-26 17:24:00,84.3,64.4,29.98,West,275,1.1,3.0,51,0.00,,,0.00,WUHU216DAVISVP2,2013-07-26 21:24:00,
2013-07-26 17:29:00,84.2,62.5,29.98,NNE,23,1.0,2.0,48,0.00,,,0.00,WUHU216DAVISVP2,2013-07-26 21:29:00,
2013-07-26 17:34:00,84.4,62.7,29.98,North,358,1.3,2.0,48,0.00,,,0.00,WUHU216DAVISVP2,2013-07-26 21:34:00,
2013-07-26 17:39:00,84.4,64.5,29.98,NW,322,1.0,2.0,51,0.00,,,0.00,WUHU216DAVISVP2,2013-07-26 21:39:00,
2013-07-26 17:44:00,84.7,63.6,29.97,WNW,288,1.3,2.0,49,0.00,,,0.00,WUHU216DAVISVP2,2013-07-26 21:44:00,
2013-07-26 17:49:00,84.9,63.1,29.97,NW,310,2.0,3.0,48,0.00,,,0.00,WUHU216DAVISVP2,2013-07-26 21:49:00,
2013-07-26 17:54:00,84.0,63.5,29.97,NW,304,2.0,4.0,50,0.00,,,0.00,WUHU216DAVISVP2,2013-07-26 21:54:00,
2013-07-26 17:59:00,83.9,62.2,29.98,WNW,303,1.5,4.0,48,0.00,,,0.00,WUHU216DAVISVP2,2013-07-26 21:59:00,
2013-07-26 18:04:00,83.7,63.2,29.98,West,272,1.0,4.0,50,0.00,,,0.00,WUHU216DAVISVP2,2013-07-26 22:04:00,
2013-07-26 18:09:00,83.6,65.4,29.98,West,281,1.0,4.0,54,0.00,,,0.00,WUHU216DAVISVP2,2013-07-26 22:09:00,
2013-07-26 18:14:00,83.4,64.1,29.98,WNW,297,2.0,4.0,52,0.00,,,0.00,WUHU216DAVISVP2,2013-07-26 22:14:00,
2013-07-26 18:19:00,83.0,62.0,29.98,West,275,1.7,4.0,49,0.00,,,0.00,WUHU216DAVISVP2,2013-07-26 22:19:00,
2013-07-26 18:24:00,83.1,64.9,29.98,North,354,1.0,4.0,54,0.00,,,0.00,WUHU216DAVISVP2,2013-07-26 22:24:00,
2013-07-26 18:29:00,83.2,65.0,29.98,WNW,289,1.5,4.0,54,0.00,,,0.00,WUHU216DAVISVP2,2013-07-26 22:29:00,
2013-07-26 18:34:00,82.9,64.7,29.98,NNE,12,1.0,4.0,54,0.00,,,0.00,WUHU216DAVISVP2,2013-07-26 22:34:00,
2013-07-26 18:39:00,83.0,65.4,29.98,NNW,347,1.2,4.0,55,0.00,,,0.00,WUHU216DAVISVP2,2013-07-26 22:39:00,
2013-07-26 18:44:00,83.0,65.9,29.98,NW,324,1.0,4.0,56,0.00,,,0.00,WUHU216DAVISVP2,2013-07-26 22:44:00,
2013-07-26 18:49:00,83.1,67.5,29.98,NW,304,3.0,3.0,59,0.00,,,0.00,WUHU216DAVISVP2,2013-07-26 22:49:00,
2013-07-26 18:54:00,82.2,65.2,29.97,West,281,1.0,3.0,56,0.00,,,0.00,WUHU216DAVISVP2,2013-07-26 22:54:00,
2013-07-26 18:59:00,81.4,66.9,29.98,West,281,0.0,3.0,61,0.00,,,0.00,WUHU216DAVISVP2,2013-07-26 22:59:00,
2013-07-26 19:04:00,80.9,67.4,29.97,West,281,0.0,3.0,63,0.00,,,0.00,WUHU216DAVISVP2,2013-07-26 23:04:00,
2013-07-26 19:09:00,79.5,67.8,29.97,West,281,0.0,1.0,67,0.00,,,0.00,WUHU216DAVISVP2,2013-07-26 23:09:00,
2013-07-26 19:14:00,78.5,66.9,29.98,NNW,330,0.0,1.0,67,0.00,,,0.00,WUHU216DAVISVP2,2013-07-26 23:14:00,
2013-07-26 19:19:00,77.7,67.8,29.98,NNW,330,0.0,1.0,71,0.00,,,0.00,WUHU216DAVISVP2,2013-07-26 23:19:00,
2013-07-26 19:24:00,77.7,67.8,29.98,NNW,330,0.0,1.0,71,0.00,,,0.00,WUHU216DAVISVP2,2013-07-26 23:24:00,
2013-07-26 19:29:00,77.6,68.4,29.98,NNW,330,0.0,1.0,73,0.00,,,0.00,WUHU216DAVISVP2,2013-07-26 23:29:00,
2013-07-26 19:34:00,76.8,67.3,29.98,NNW,330,0.0,0.0,72,0.00,,,0.00,WUHU216DAVISVP2,2013-07-26 23:34:00,
2013-07-26 19:39:00,76.2,66.7,29.98,NNW,330,0.0,0.0,72,0.00,,,0.00,WUHU216DAVISVP2,2013-07-26 23:39:00,
2013-07-26 19:44:00,75.9,66.4,29.98,NNW,330,0.0,0.0,72,0.00,,,0.00,WUHU216DAVISVP2,2013-07-26 23:44:00,
2013-07-26 19:49:00,76.0,66.9,29.98,NNW,330,0.0,0.0,73,0.00,,,0.00,WUHU216DAVISVP2,2013-07-26 23:49:00,
2013-07-26 19:54:00,75.5,67.2,29.98,NNW,330,0.0,1.0,75,0.00,,,0.00,WUHU216DAVISVP2,2013-07-26 23:54:00,
2013-07-26 19:59:00,76.1,67.4,29.98,NNW,330,0.0,1.0,74,0.00,,,0.00,WUHU216DAVISVP2,2013-07-26 23:59:00,
2013-07-26 20:04:00,76.4,67.3,29.97,NNW,330,0.0,1.0,73,0.00,,,0.00,WUHU216DAVISVP2,2013-07-27 00:04:00,
2013-07-26 20:09:00,75.3,66.6,29.98,NNW,330,0.0,1.0,74,0.00,,,0.00,WUHU216DAVISVP2,2013-07-27 00:09:00,
2013-07-26 20:14:00,74.0,65.7,29.98,NNW,330,1.0,1.0,75,0.00,,,0.00,WUHU216DAVISVP2,2013-07-27 00:14:00,
2013-07-26 20:19:00,72.4,64.9,29.98,NNW,330,0.0,1.0,77,0.00,,,0.00,WUHU216DAVISVP2,2013-07-27 00:19:00,
2013-07-26 20:24:00,71.4,65.0,29.98,NNW,330,0.0,1.0,80,0.00,,,0.00,WUHU216DAVISVP2,2013-07-27 00:24:00,
2013-07-26 20:29:00,70.3,64.6,29.98,NNW,330,0.0,1.0,82,0.00,,,0.00,WUHU216DAVISVP2,2013-07-27 00:29:00,
2013-07-26 20:34:00,69.3,64.3,29.98,NNW,330,0.0,0.0,84,0.00,,,0.00,WUHU216DAVISVP2,2013-07-27 00:34:00,
2013-07-26 20:39:00,68.5,64.2,29.98,NNW,330,0.0,0.0,86,0.00,,,0.00,WUHU216DAVISVP2,2013-07-27 00:39:00,
2013-07-26 20:44:00,67.8,63.8,29.98,NNW,330,0.0,0.0,87,0.00,,,0.00,WUHU216DAVISVP2,2013-07-27 00:44:00,
2013-07-26 20:49:00,67.3,63.9,29.98,NNW,330,0.0,0.0,89,0.00,,,0.00,WUHU216DAVISVP2,2013-07-27 00:49:00,
2013-07-26 20:54:00,66.7,63.3,29.98,ENE,59,1.0,1.0,89,0.00,,,0.00,WUHU216DAVISVP2,2013-07-27 00:54:00,
2013-07-26 20:59:00,66.0,63.3,29.98,WSW,255,1.0,1.0,91,0.00,,,0.00,WUHU216DAVISVP2,2013-07-27 00:59:00,
2013-07-26 21:04:00,65.8,62.8,29.98,WSW,255,1.0,1.0,90,0.00,,,0.00,WUHU216DAVISVP2,2013-07-27 01:04:00,
2013-07-26 21:09:00,65.4,62.7,29.98,WSW,255,0.0,1.0,91,0.00,,,0.00,WUHU216DAVISVP2,2013-07-27 01:09:00,
2013-07-26 21:14:00,65.2,62.5,29.98,WSW,255,0.0,1.0,91,0.00,,,0.00,WUHU216DAVISVP2,2013-07-27 01:14:00,
2013-07-26 21:19:00,64.9,62.5,29.98,WSW,255,0.0,1.0,92,0.00,,,0.00,WUHU216DAVISVP2,2013-07-27 01:19:00,
2013-07-26 21:24:00,64.7,62.6,29.98,WSW,255,0.0,0.0,93,0.00,,,0.00,WUHU216DAVISVP2,2013-07-27 01:24:00,
2013-07-26 21:29:00,64.4,62.3,29.98,WSW,255,0.0,0.0,93,0.00,,,0.00,WUHU216DAVISVP2,2013-07-27 01:29:00,
2013-07-26 21:34:00,64.2,62.1,29.98,WSW,255,0.0,0.0,93,0.00,,,0.00,WUHU216DAVISVP2,2013-07-27 01:34:00,
2013-07-26 21:39:00,64.1,62.3,29.99,WSW,255,0.0,0.0,94,0.00,,,0.00,WUHU216DAVISVP2,2013-07-27 01:39:00,
2013-07-26 21:44:00,63.8,62.0,29.98,WSW,255,0.0,0.0,94,0.00,,,0.00,WUHU216DAVISVP2,2013-07-27 01:44:00,
2013-07-26 21:49:00,63.7,61.9,29.99,WSW,255,0.0,0.0,94,0.00,,,0.00,WUHU216DAVISVP2,2013-07-27 01:49:00,
2013-07-26 21:54:00,63.4,61.6,29.99,WSW,255,0.0,0.0,94,0.00,,,0.00,WUHU216DAVISVP2,2013-07-27 01:54:00,
2013-07-26 21:59:00,63.3,61.5,29.99,WSW,255,0.0,0.0,94,0.00,,,0.00,WUHU216DAVISVP2,2013-07-27 01:59:00,
2013-07-26 22:04:00,63.1,61.3,29.99,WSW,255,0.0,0.0,94,0.00,,,0.00,WUHU216DAVISVP2,2013-07-27 02:04:00,
2013-07-26 22:09:00,63.1,61.6,29.99,WSW,255,0.0,0.0,95,0.00,,,0.00,WUHU216DAVISVP2,2013-07-27 02:09:00,
2013-07-26 22:14:00,62.9,61.1,29.99,WSW,255,0.0,0.0,94,0.00,,,0.00,WUHU216DAVISVP2,2013-07-27 02:14:00,
2013-07-26 22:19:00,62.6,60.8,29.99,WSW,255,0.0,0.0,94,0.00,,,0.00,WUHU216DAVISVP2,2013-07-27 02:19:00,
2013-07-26 22:24:00,62.7,61.2,29.99,WSW,255,0.0,0.0,95,0.00,,,0.00,WUHU216DAVISVP2,2013-07-27 02:24:00,
2013-07-26 22:29:00,62.5,61.0,29.99,WSW,255,0.0,0.0,95,0.00,,,0.00,WUHU216DAVISVP2,2013-07-27 02:29:00,
2013-07-26 22:34:00,62.6,61.1,29.99,WSW,255,0.0,0.0,95,0.00,,,0.00,WUHU216DAVISVP2,2013-07-27 02:34:00,
2013-07-26 22:39:00,62.6,61.1,29.99,WSW,255,0.0,0.0,95,0.00,,,0.00,WUHU216DAVISVP2,2013-07-27 02:39:00,
2013-07-26 22:44:00,62.6,61.1,29.99,WSW,255,0.0,0.0,95,0.00,,,0.00,WUHU216DAVISVP2,2013-07-27 02:44:00,
2013-07-26 22:49:00,62.6,61.1,29.99,WSW,255,0.0,0.0,95,0.00,,,0.00,WUHU216DAVISVP2,2013-07-27 02:49:00,
2013-07-26 22:54:00,62.4,60.9,29.99,WSW,255,0.0,0.0,95,0.00,,,0.00,WUHU216DAVISVP2,2013-07-27 02:54:00,
2013-07-26 22:59:00,62.1,60.6,29.99,WSW,255,0.0,0.0,95,0.00,,,0.00,WUHU216DAVISVP2,2013-07-27 02:59:00,
2013-07-26 23:04:00,62.2,60.7,29.99,WSW,255,0.0,0.0,95,0.00,,,0.00,WUHU216DAVISVP2,2013-07-27 03:04:00,
2013-07-26 23:09:00,62.1,60.6,29.99,WSW,255,0.0,0.0,95,0.00,,,0.00,WUHU216DAVISVP2,2013-07-27 03:09:00,
2013-07-26 23:14:00,61.8,60.3,29.99,WSW,255,0.0,0.0,95,0.00,,,0.00,WUHU216DAVISVP2,2013-07-27 03:14:00,
2013-07-26 23:19:00,61.7,60.2,29.99,WSW,255,0.0,0.0,95,0.00,,,0.00,WUHU216DAVISVP2,2013-07-27 03:19:00,
2013-07-26 23:24:00,61.6,60.1,29.99,WSW,255,0.0,0.0,95,0.00,,,0.00,WUHU216DAVISVP2,2013-07-27 03:24:00,
2013-07-26 23:29:00,61.6,60.1,29.99,WSW,255,0.0,0.0,95,0.00,,,0.00,WUHU216DAVISVP2,2013-07-27 03:29:00,
2013-07-26 23:34:00,61.9,60.4,29.99,WSW,255,0.0,0.0,95,0.00,,,0.00,WUHU216DAVISVP2,2013-07-27 03:34:00,
2013-07-26 23:39:00,62.0,60.5,29.99,WSW,255,0.0,0.0,95,0.00,,,0.00,WUHU216DAVISVP2,2013-07-27 03:39:00,
2013-07-26 23:44:00,61.8,60.3,29.99,WSW,255,0.0,0.0,95,0.00,,,0.00,WUHU216DAVISVP2,2013-07-27 03:44:00,
2013-07-26 23:49:00,61.7,60.2,29.99,WSW,255,0.0,0.0,95,0.00,,,0.00,WUHU216DAVISVP2,2013-07-27 03:49:00,
2013-07-26 23:54:00,61.8,60.3,29.99,WSW,255,0.0,0.0,95,0.00,,,0.00,WUHU216DAVISVP2,2013-07-27 03:54:00,
2013-07-26 23:59:00,61.8,60.3,29.99,WSW,255,0.0,0.0,95,0.00,,,0.00,WUHU216DAVISVP2,2013-07-27 03:59:00,